createdAt,value
2023-09-16T00:01:11.195Z,99.90
2023-09-16T00:03:38.242Z,99.90
2023-09-16T00:06:05.834Z,99.90
2023-09-16T00:08:35.416Z,99.90
2023-09-16T00:11:02.126Z,99.90
2023-09-16T00:13:28.885Z,99.90
2023-09-16T00:15:55.856Z,99.90
2023-09-16T00:18:22.776Z,99.90
2023-09-16T00:20:53.678Z,99.90
2023-09-16T00:23:20.420Z,99.90
2023-09-16T00:25:47.208Z,99.90
2023-09-16T00:28:14.049Z,99.90
2023-09-16T00:30:40.809Z,99.90
2023-09-16T00:33:07.657Z,99.90
2023-09-16T00:35:34.469Z,99.90
2023-09-16T00:38:01.255Z,99.90
2023-09-16T00:40:27.979Z,99.90
2023-09-16T00:42:54.898Z,99.90
2023-09-16T00:45:21.613Z,99.90
2023-09-16T00:47:48.531Z,99.90
2023-09-16T00:50:15.904Z,99.90
2023-09-16T00:52:42.641Z,99.90
2023-09-16T00:55:10.244Z,99.90
2023-09-16T00:57:37.095Z,99.90
2023-09-16T01:00:08.923Z,99.90
2023-09-16T01:02:35.986Z,99.90
2023-09-16T01:05:06.028Z,99.90
2023-09-16T01:07:32.896Z,99.90
2023-09-16T01:09:59.617Z,99.90
2023-09-16T01:12:26.443Z,99.90
2023-09-16T01:14:53.215Z,99.90
2023-09-16T01:17:19.998Z,99.90
2023-09-16T01:19:46.788Z,99.90
2023-09-16T01:22:14.079Z,99.90
2023-09-16T01:24:41.851Z,99.90
2023-09-16T01:27:08.926Z,99.90
2023-09-16T01:29:35.606Z,99.90
2023-09-16T01:32:03.437Z,99.90
2023-09-16T01:34:30.762Z,99.90
2023-09-16T01:36:57.633Z,99.90
2023-09-16T01:39:25.459Z,99.90
2023-09-16T01:41:52.208Z,99.90
2023-09-16T01:44:18.961Z,99.90
2023-09-16T01:46:45.949Z,99.90
2023-09-16T01:49:12.716Z,99.90
2023-09-16T01:51:39.597Z,99.90
2023-09-16T01:54:07.050Z,99.90
2023-09-16T01:56:33.920Z,99.90
2023-09-16T01:59:00.702Z,99.90
2023-09-16T02:01:27.499Z,99.90
2023-09-16T02:03:56.920Z,99.90
2023-09-16T02:06:24.181Z,99.90
2023-09-16T02:08:51.801Z,99.90
2023-09-16T02:11:18.574Z,99.90
2023-09-16T02:13:45.477Z,99.90
2023-09-16T02:16:12.421Z,99.90
2023-09-16T02:18:39.700Z,99.90
2023-09-16T02:21:06.643Z,99.90
2023-09-16T02:23:33.402Z,99.90
2023-09-16T02:26:00.215Z,99.90
2023-09-16T02:28:26.979Z,99.90
2023-09-16T02:30:53.875Z,99.90
2023-09-16T02:33:21.471Z,99.90
2023-09-16T02:35:48.249Z,99.90
2023-09-16T02:38:15.307Z,99.90
2023-09-16T02:40:42.267Z,99.90
2023-09-16T02:43:10.444Z,99.90
2023-09-16T02:45:37.358Z,99.90
2023-09-16T02:48:04.222Z,99.90
2023-09-16T02:50:31.146Z,99.90
2023-09-16T02:52:57.909Z,99.90
2023-09-16T02:55:24.754Z,99.90
2023-09-16T02:57:51.478Z,99.90
2023-09-16T03:00:18.266Z,99.90
2023-09-16T03:02:46.327Z,99.90
2023-09-16T03:05:13.178Z,99.90
2023-09-16T03:07:40.289Z,99.90
2023-09-16T03:10:07.133Z,99.90
2023-09-16T03:12:34.994Z,99.90
2023-09-16T03:15:02.072Z,99.90
2023-09-16T03:17:28.888Z,99.90
2023-09-16T03:19:56.167Z,99.90
2023-09-16T03:22:22.990Z,99.90
2023-09-16T03:24:50.044Z,99.90
2023-09-16T03:27:16.901Z,99.90
2023-09-16T03:29:43.782Z,99.90
2023-09-16T03:32:10.664Z,99.90
2023-09-16T03:34:37.546Z,99.90
2023-09-16T03:37:05.009Z,99.90
2023-09-16T03:39:31.898Z,99.90
2023-09-16T03:41:59.553Z,99.90
2023-09-16T03:44:26.346Z,99.90
2023-09-16T03:46:54.070Z,99.90
2023-09-16T03:49:20.971Z,99.90
2023-09-16T03:51:47.701Z,99.90
2023-09-16T03:54:14.586Z,99.90
2023-09-16T03:56:43.181Z,99.90
2023-09-16T03:59:12.269Z,99.90
2023-09-16T04:01:39.172Z,99.90
2023-09-16T04:04:07.216Z,99.90
2023-09-16T04:06:34.082Z,99.90
2023-09-16T04:09:01.659Z,99.90
2023-09-16T04:11:29.191Z,99.90
2023-09-16T04:13:57.138Z,99.90
2023-09-16T04:16:26.711Z,99.90
2023-09-16T04:18:54.746Z,99.90
2023-09-16T04:21:21.623Z,99.90
2023-09-16T04:23:48.616Z,99.90
2023-09-16T04:26:17.253Z,99.90
2023-09-16T04:28:47.034Z,99.90
2023-09-16T04:31:14.012Z,99.90
2023-09-16T04:33:41.988Z,99.90
2023-09-16T04:36:10.290Z,99.90
2023-09-16T04:38:38.315Z,99.90
2023-09-16T04:41:06.576Z,99.90
2023-09-16T04:43:33.555Z,99.90
2023-09-16T04:46:02.029Z,99.90
2023-09-16T04:48:39.958Z,99.90
2023-09-16T04:51:07.147Z,99.90
2023-09-16T04:53:34.429Z,99.90
2023-09-16T04:56:01.665Z,99.90
2023-09-16T04:58:30.524Z,99.90
2023-09-16T05:00:58.809Z,99.90
2023-09-16T05:03:25.658Z,99.90
2023-09-16T05:05:52.649Z,99.90
2023-09-16T05:08:20.072Z,99.90
2023-09-16T05:10:47.190Z,99.90
2023-09-16T05:13:13.986Z,99.90
2023-09-16T05:15:41.022Z,99.90
2023-09-16T05:18:08.175Z,99.90
2023-09-16T05:20:35.386Z,99.90
2023-09-16T05:23:02.925Z,99.90
2023-09-16T05:25:29.775Z,99.90
2023-09-16T05:27:56.560Z,99.90
2023-09-16T05:30:23.370Z,99.90
2023-09-16T05:32:50.580Z,99.90
2023-09-16T05:35:17.864Z,99.90
2023-09-16T05:37:45.123Z,99.90
2023-09-16T05:40:12.951Z,99.90
2023-09-16T05:42:39.799Z,99.90
2023-09-16T05:45:06.794Z,99.90
2023-09-16T05:47:33.887Z,99.90
2023-09-16T05:50:01.194Z,99.90
2023-09-16T05:52:29.146Z,99.90
2023-09-16T05:54:55.988Z,99.90
2023-09-16T05:57:22.977Z,99.90
2023-09-16T05:59:50.248Z,99.90
2023-09-16T06:02:18.563Z,99.90
2023-09-16T06:04:45.323Z,99.90
2023-09-16T06:07:12.205Z,99.90
2023-09-16T06:09:38.981Z,99.90
2023-09-16T06:12:05.855Z,99.90
2023-09-16T06:14:32.757Z,99.90
2023-09-16T06:16:59.876Z,99.90
2023-09-16T06:19:26.809Z,99.90
2023-09-16T06:21:53.595Z,99.90
2023-09-16T06:24:22.512Z,99.90
2023-09-16T06:26:49.975Z,99.90
2023-09-16T06:29:16.758Z,99.90
2023-09-16T06:31:43.634Z,99.90
2023-09-16T06:34:10.566Z,99.90
2023-09-16T06:36:40.349Z,99.90
2023-09-16T06:39:08.969Z,99.90
2023-09-16T06:41:35.752Z,99.90
2023-09-16T06:44:11.890Z,99.90
2023-09-16T06:46:41.918Z,99.90
2023-09-16T06:49:09.001Z,99.90
2023-09-16T06:51:35.781Z,99.90
2023-09-16T06:54:02.501Z,99.90
2023-09-16T06:56:30.837Z,99.90
2023-09-16T06:58:58.144Z,99.90
2023-09-16T07:01:24.971Z,99.90
2023-09-16T07:03:51.912Z,99.90
2023-09-16T07:06:18.703Z,99.90
2023-09-16T07:08:45.482Z,99.90
2023-09-16T07:11:14.564Z,99.90
2023-09-16T07:13:41.328Z,99.90
2023-09-16T07:16:09.226Z,99.90
2023-09-16T07:18:40.656Z,99.90
2023-09-16T07:21:08.195Z,99.90
2023-09-16T07:23:35.047Z,99.90
2023-09-16T07:26:01.906Z,99.90
2023-09-16T07:28:28.676Z,99.90
2023-09-16T07:30:56.574Z,99.90
2023-09-16T07:33:23.666Z,99.90
2023-09-16T07:35:52.784Z,99.90
2023-09-16T07:38:19.678Z,99.90
2023-09-16T07:40:46.545Z,99.90
2023-09-16T07:43:13.468Z,99.90
2023-09-16T07:45:40.473Z,99.90
2023-09-16T07:48:11.148Z,99.90
2023-09-16T07:50:38.139Z,99.90
2023-09-16T07:53:05.010Z,99.90
2023-09-16T07:55:31.820Z,99.90
2023-09-16T07:57:58.727Z,99.90
2023-09-16T08:00:27.811Z,99.90
2023-09-16T08:02:54.692Z,99.90
2023-09-16T08:05:21.533Z,99.90
2023-09-16T08:07:48.256Z,99.90
2023-09-16T08:10:15.103Z,99.90
2023-09-16T08:12:41.956Z,99.90
2023-09-16T08:15:08.884Z,99.90
2023-09-16T08:17:36.651Z,99.90
2023-09-16T08:20:03.487Z,99.90
2023-09-16T08:22:30.452Z,99.90
2023-09-16T08:24:57.296Z,99.90
2023-09-16T08:27:24.099Z,99.90
2023-09-16T08:29:51.057Z,99.90
2023-09-16T08:32:17.979Z,99.90
2023-09-16T08:34:44.976Z,99.90
2023-09-16T08:37:14.654Z,99.90
2023-09-16T08:39:41.462Z,99.90
2023-09-16T08:42:08.781Z,99.90
2023-09-16T08:44:35.632Z,99.90
2023-09-16T08:47:02.429Z,99.90
2023-09-16T08:49:29.297Z,99.90
2023-09-16T08:51:56.116Z,99.90
2023-09-16T08:54:22.953Z,99.90
2023-09-16T08:56:49.744Z,99.90
2023-09-16T08:59:16.670Z,99.90
2023-09-16T09:01:43.486Z,99.90
2023-09-16T09:04:10.412Z,99.90
2023-09-16T09:06:40.720Z,99.90
2023-09-16T09:09:08.075Z,99.90
2023-09-16T09:11:35.080Z,99.90
2023-09-16T09:14:01.954Z,99.90
2023-09-16T09:16:28.787Z,99.90
2023-09-16T09:18:55.610Z,99.90
2023-09-16T09:21:22.998Z,99.90
2023-09-16T09:23:49.862Z,99.90
2023-09-16T09:26:16.646Z,99.90
2023-09-16T09:28:43.390Z,99.90
2023-09-16T09:31:10.250Z,99.90
2023-09-16T09:33:37.095Z,99.90
2023-09-16T09:36:03.849Z,99.90
2023-09-16T09:38:30.772Z,99.90
2023-09-16T09:40:57.575Z,99.90
2023-09-16T09:43:24.401Z,99.90
2023-09-16T09:45:51.187Z,99.90
2023-09-16T09:48:18.081Z,99.90
2023-09-16T09:50:44.866Z,99.90
2023-09-16T09:53:11.625Z,99.90
2023-09-16T09:55:38.327Z,99.90
2023-09-16T09:58:05.163Z,99.90
2023-09-16T10:00:31.926Z,99.90
2023-09-16T10:03:02.003Z,99.90
2023-09-16T10:05:29.194Z,99.90
2023-09-16T10:07:59.453Z,99.90
2023-09-16T10:10:26.406Z,99.90
2023-09-16T10:12:53.194Z,99.90
2023-09-16T10:15:20.008Z,99.90
2023-09-16T10:17:46.837Z,99.90
2023-09-16T10:20:14.661Z,99.90
2023-09-16T10:22:42.098Z,99.90
2023-09-16T10:25:08.953Z,99.90
2023-09-16T10:27:35.830Z,99.90
2023-09-16T10:30:02.643Z,99.90
2023-09-16T10:32:30.166Z,99.90
2023-09-16T10:34:57.059Z,99.90
2023-09-16T10:37:23.970Z,99.90
2023-09-16T10:39:53.661Z,99.90
2023-09-16T10:42:21.195Z,99.90
2023-09-16T10:44:48.192Z,99.90
2023-09-16T10:47:14.944Z,99.90
2023-09-16T10:49:41.855Z,99.90
2023-09-16T10:52:08.633Z,99.90
2023-09-16T10:54:35.683Z,99.90
2023-09-16T10:57:02.451Z,99.90
2023-09-16T10:59:29.240Z,99.90
2023-09-16T11:01:56.998Z,99.90
2023-09-16T11:04:25.911Z,99.90
2023-09-16T11:06:55.832Z,99.90
2023-09-16T11:09:22.636Z,99.90
2023-09-16T11:11:49.436Z,99.90
2023-09-16T11:14:16.178Z,99.90
2023-09-16T11:16:43.105Z,99.90
2023-09-16T11:19:09.953Z,99.90
2023-09-16T11:21:36.784Z,99.90
2023-09-16T11:24:03.501Z,99.90
2023-09-16T11:26:30.236Z,99.90
2023-09-16T11:28:56.987Z,99.90
2023-09-16T11:31:23.911Z,99.90
2023-09-16T11:33:50.668Z,99.90
2023-09-16T11:36:17.576Z,99.90
2023-09-16T11:38:44.453Z,99.90
2023-09-16T11:41:11.512Z,99.90
2023-09-16T11:43:38.438Z,99.90
2023-09-16T11:46:05.359Z,99.90
2023-09-16T11:48:46.505Z,99.90
2023-09-16T11:51:14.790Z,99.90
2023-09-16T11:53:41.517Z,99.80
2023-09-16T11:56:08.259Z,98.50
2023-09-16T11:58:35.137Z,99.30
2023-09-16T12:01:02.011Z,99.40
2023-09-16T12:03:28.946Z,98.70
2023-09-16T12:05:56.748Z,98.10
2023-09-16T12:08:23.480Z,97.60
2023-09-16T12:10:50.965Z,98.20
2023-09-16T12:13:17.693Z,97.60
2023-09-16T12:15:44.518Z,97.10
2023-09-16T12:18:11.261Z,97.30
2023-09-16T12:20:38.013Z,97.00
2023-09-16T12:23:04.764Z,97.00
2023-09-16T12:25:34.654Z,96.80
2023-09-16T12:28:01.501Z,96.90
2023-09-16T12:30:28.384Z,96.80
2023-09-16T12:32:55.846Z,96.60
2023-09-16T12:35:22.654Z,97.00
2023-09-16T12:37:49.450Z,97.30
2023-09-16T12:40:16.258Z,96.90
2023-09-16T12:42:43.058Z,97.30
2023-09-16T12:45:09.837Z,97.00
2023-09-16T12:47:36.688Z,96.80
2023-09-16T12:50:03.681Z,96.40
2023-09-16T12:52:30.848Z,96.60
2023-09-16T12:54:57.787Z,96.50
2023-09-16T12:57:24.728Z,96.20
2023-09-16T12:59:51.627Z,96.00
2023-09-16T13:02:18.475Z,95.40
2023-09-16T13:04:45.369Z,95.80
2023-09-16T13:07:12.151Z,94.50
2023-09-16T13:09:38.909Z,94.30
2023-09-16T13:12:05.613Z,93.80
2023-09-16T13:14:32.772Z,93.70
2023-09-16T13:16:59.587Z,93.10
2023-09-16T13:19:26.592Z,93.20
2023-09-16T13:21:53.568Z,93.10
2023-09-16T13:24:20.497Z,92.80
2023-09-16T13:26:47.200Z,92.30
2023-09-16T13:29:14.037Z,92.40
2023-09-16T13:31:40.877Z,93.10
2023-09-16T13:34:08.835Z,92.60
2023-09-16T13:36:35.635Z,92.80
2023-09-16T13:39:03.327Z,92.50
2023-09-16T13:41:30.146Z,92.30
2023-09-16T13:43:56.927Z,91.80
2023-09-16T13:46:25.938Z,92.20
2023-09-16T13:48:54.591Z,92.70
2023-09-16T13:51:22.168Z,92.50
2023-09-16T13:53:49.119Z,91.80
2023-09-16T13:56:15.869Z,92.50
2023-09-16T13:58:42.822Z,92.60
2023-09-16T14:01:09.611Z,92.20
2023-09-16T14:03:36.610Z,92.10
2023-09-16T14:06:03.402Z,92.20
2023-09-16T14:08:30.189Z,92.00
2023-09-16T14:10:56.937Z,92.00
2023-09-16T14:13:23.833Z,92.20
2023-09-16T14:15:50.863Z,91.40
2023-09-16T14:18:17.694Z,91.80
2023-09-16T14:20:44.817Z,91.40
2023-09-16T14:23:11.744Z,91.60
2023-09-16T14:25:38.457Z,91.60
2023-09-16T14:28:08.130Z,91.80
2023-09-16T14:30:35.112Z,91.40
2023-09-16T14:33:02.221Z,91.30
2023-09-16T14:35:30.413Z,91.60
2023-09-16T14:37:57.308Z,91.60
2023-09-16T14:40:24.426Z,91.70
2023-09-16T14:42:51.396Z,91.60
2023-09-16T14:45:18.304Z,91.20
2023-09-16T14:47:45.564Z,91.70
2023-09-16T14:50:13.694Z,92.00
2023-09-16T14:52:42.021Z,91.70
2023-09-16T14:55:10.342Z,91.80
2023-09-16T14:57:37.209Z,92.10
2023-09-16T15:00:06.408Z,92.10
2023-09-16T15:02:33.244Z,92.10
2023-09-16T15:05:00.038Z,92.10
2023-09-16T15:07:26.899Z,92.50
2023-09-16T15:09:53.908Z,92.20
2023-09-16T15:12:20.762Z,92.20
2023-09-16T15:14:47.561Z,92.10
2023-09-16T15:17:14.331Z,92.40
2023-09-16T15:19:41.234Z,92.10
2023-09-16T15:22:08.152Z,92.10
2023-09-16T15:24:34.992Z,92.40
2023-09-16T15:27:01.799Z,92.10
2023-09-16T15:29:28.558Z,92.10
2023-09-16T15:32:13.732Z,92.30
2023-09-16T15:34:42.654Z,92.10
2023-09-16T15:37:10.109Z,92.00
2023-09-16T15:39:38.016Z,92.10
2023-09-16T15:42:04.856Z,92.10
2023-09-16T15:44:32.027Z,91.80
2023-09-16T15:46:58.987Z,92.00
2023-09-16T15:49:25.943Z,91.60
2023-09-16T15:51:52.665Z,91.90
2023-09-16T15:54:20.217Z,92.00
2023-09-16T15:56:46.980Z,91.50
2023-09-16T15:59:13.833Z,91.60
2023-09-16T16:01:41.556Z,91.80
2023-09-16T16:04:08.530Z,91.50
2023-09-16T16:06:35.391Z,91.80
2023-09-16T16:09:02.291Z,91.30
2023-09-16T16:11:29.122Z,91.50
2023-09-16T16:13:55.964Z,91.50
2023-09-16T16:16:22.728Z,91.60
2023-09-16T16:18:50.665Z,91.70
2023-09-16T16:21:17.880Z,91.80
2023-09-16T16:23:44.759Z,92.00
2023-09-16T16:26:11.495Z,92.10
2023-09-16T16:28:38.286Z,92.30
2023-09-16T16:31:05.939Z,92.80
2023-09-16T16:33:32.946Z,92.90
2023-09-16T16:36:00.134Z,93.10
2023-09-16T16:38:28.507Z,93.10
2023-09-16T16:40:56.445Z,93.20
2023-09-16T16:43:23.235Z,93.10
2023-09-16T16:45:50.132Z,93.30
2023-09-16T16:48:17.021Z,93.40
2023-09-16T16:50:43.901Z,93.20
2023-09-16T16:53:10.728Z,93.30
2023-09-16T16:55:37.618Z,93.40
2023-09-16T16:58:04.513Z,93.40
2023-09-16T17:00:31.656Z,93.70
2023-09-16T17:02:58.560Z,93.60
2023-09-16T17:05:27.382Z,93.90
2023-09-16T17:07:54.332Z,94.10
2023-09-16T17:10:21.078Z,94.20
2023-09-16T17:12:48.036Z,94.50
2023-09-16T17:15:15.870Z,94.90
2023-09-16T17:17:43.354Z,95.00
2023-09-16T17:20:10.149Z,95.20
2023-09-16T17:22:37.077Z,95.40
2023-09-16T17:25:05.882Z,95.40
2023-09-16T17:27:33.090Z,95.60
2023-09-16T17:30:00.139Z,95.70
2023-09-16T17:32:27.261Z,96.00
2023-09-16T17:34:54.224Z,96.10
2023-09-16T17:37:21.099Z,96.30
2023-09-16T17:39:48.100Z,96.50
2023-09-16T17:42:15.179Z,96.60
2023-09-16T17:44:41.959Z,96.80
2023-09-16T17:47:09.003Z,97.00
2023-09-16T17:49:36.104Z,97.00
2023-09-16T17:52:02.977Z,97.40
2023-09-16T17:54:29.889Z,97.20
2023-09-16T17:56:57.100Z,97.30
2023-09-16T17:59:23.996Z,97.50
2023-09-16T18:01:51.003Z,97.60
2023-09-16T18:04:19.788Z,97.80
2023-09-16T18:06:47.718Z,98.00
2023-09-16T18:09:14.550Z,98.30
2023-09-16T18:11:41.485Z,98.50
2023-09-16T18:14:08.702Z,98.50
2023-09-16T18:16:35.729Z,98.70
2023-09-16T18:19:03.137Z,98.80
2023-09-16T18:21:30.112Z,99.00
2023-09-16T18:23:56.893Z,99.20
2023-09-16T18:26:23.840Z,99.30
2023-09-16T18:28:51.659Z,99.50
2023-09-16T18:31:19.046Z,99.90
2023-09-16T18:33:47.938Z,99.90
2023-09-16T18:36:14.944Z,99.90
2023-09-16T18:38:41.728Z,99.90
2023-09-16T18:41:08.822Z,99.90
2023-09-16T18:43:35.840Z,99.90
2023-09-16T18:46:06.845Z,99.90
2023-09-16T18:48:37.454Z,99.90
2023-09-16T18:51:07.468Z,99.90
2023-09-16T18:53:34.892Z,99.90
2023-09-16T18:56:01.865Z,99.90
2023-09-16T18:58:30.570Z,99.90
2023-09-16T19:00:57.573Z,99.90
2023-09-16T19:03:24.716Z,99.90
2023-09-16T19:05:51.873Z,99.90
2023-09-16T19:08:18.864Z,99.90
2023-09-16T19:10:47.041Z,99.90
2023-09-16T19:13:14.681Z,99.90
2023-09-16T19:15:41.720Z,99.90
2023-09-16T19:18:08.826Z,99.90
2023-09-16T19:20:36.135Z,99.90
2023-09-16T19:23:03.592Z,99.90
2023-09-16T19:25:30.695Z,99.90
2023-09-16T19:27:57.788Z,99.90
2023-09-16T19:30:25.183Z,99.90
2023-09-16T19:32:53.865Z,99.90
2023-09-16T19:35:22.650Z,99.90
2023-09-16T19:37:49.624Z,99.90
2023-09-16T19:40:16.873Z,99.90
2023-09-16T19:42:43.868Z,99.90
2023-09-16T19:45:11.059Z,99.90
2023-09-16T19:47:38.037Z,99.90
2023-09-16T19:50:05.444Z,99.90
2023-09-16T19:52:32.731Z,99.90
2023-09-16T19:54:59.739Z,99.90
2023-09-16T19:57:26.573Z,99.90
2023-09-16T19:59:53.397Z,99.90
2023-09-16T20:02:20.574Z,99.90
2023-09-16T20:04:48.422Z,99.90
2023-09-16T20:07:15.547Z,99.90
2023-09-16T20:09:42.613Z,99.90
2023-09-16T20:12:09.522Z,99.90
2023-09-16T20:14:36.522Z,99.90
2023-09-16T20:17:03.687Z,99.90
2023-09-16T20:19:31.019Z,99.90
2023-09-16T20:21:57.886Z,99.90
2023-09-16T20:24:25.108Z,99.90
2023-09-16T20:26:52.737Z,99.90
2023-09-16T20:29:21.166Z,99.90
2023-09-16T20:31:48.544Z,99.90
2023-09-16T20:34:15.764Z,99.90
2023-09-16T20:36:43.782Z,99.90
2023-09-16T20:39:10.994Z,99.90
2023-09-16T20:41:37.960Z,99.90
2023-09-16T20:44:05.214Z,99.90
2023-09-16T20:46:32.328Z,99.90
2023-09-16T20:48:59.584Z,99.90
2023-09-16T20:51:26.495Z,99.90
2023-09-16T20:53:53.522Z,99.90
2023-09-16T20:56:20.705Z,99.90
2023-09-16T20:58:47.858Z,99.90
2023-09-16T21:01:14.980Z,99.90
2023-09-16T21:03:42.573Z,99.90
2023-09-16T21:06:09.595Z,99.90
2023-09-16T21:08:36.446Z,99.90
2023-09-16T21:11:03.432Z,99.90
2023-09-16T21:13:30.489Z,99.90
2023-09-16T21:15:57.480Z,99.90
2023-09-16T21:18:27.572Z,99.90
2023-09-16T21:20:54.596Z,99.90
2023-09-16T21:23:21.572Z,99.90
2023-09-16T21:25:48.775Z,99.90
2023-09-16T21:28:15.959Z,99.90
2023-09-16T21:30:42.923Z,99.90
2023-09-16T21:33:09.994Z,99.90
2023-09-16T21:35:38.932Z,99.90
2023-09-16T21:38:05.803Z,99.90
2023-09-16T21:40:32.880Z,99.90
2023-09-16T21:42:59.746Z,99.90
2023-09-16T21:45:26.640Z,99.90
2023-09-16T21:47:53.551Z,99.90
2023-09-16T21:50:20.716Z,99.90
2023-09-16T21:52:47.637Z,99.90
2023-09-16T21:55:14.661Z,99.90
2023-09-16T21:57:41.658Z,99.90
2023-09-16T22:00:25.045Z,99.90
2023-09-16T22:02:52.232Z,99.90
2023-09-16T22:05:20.734Z,99.90
2023-09-16T22:07:48.914Z,99.90
2023-09-16T22:10:16.126Z,99.90
2023-09-16T22:12:43.044Z,99.90
2023-09-16T22:15:09.925Z,99.90
2023-09-16T22:17:36.912Z,99.90
2023-09-16T22:20:10.779Z,99.90
2023-09-16T22:22:38.143Z,99.90
2023-09-16T22:25:06.203Z,99.90
2023-09-16T22:27:36.269Z,99.90
2023-09-16T22:30:04.025Z,99.90
2023-09-16T22:32:30.971Z,99.90
2023-09-16T22:34:58.145Z,99.90
2023-09-16T22:37:25.132Z,99.90
2023-09-16T22:39:57.198Z,99.90
2023-09-16T22:42:25.037Z,99.90
2023-09-16T22:45:02.936Z,99.90
2023-09-16T22:47:33.441Z,99.90
2023-09-16T22:50:00.531Z,99.90
2023-09-16T22:52:27.591Z,99.90
2023-09-16T22:54:57.189Z,99.90
2023-09-16T22:57:24.338Z,99.90
2023-09-16T22:59:51.143Z,99.90
2023-09-16T23:02:18.172Z,99.90
2023-09-16T23:04:45.096Z,99.90
2023-09-16T23:07:12.092Z,99.90
2023-09-16T23:09:38.944Z,99.90
2023-09-16T23:12:05.821Z,99.90
2023-09-16T23:14:32.892Z,99.90
2023-09-16T23:16:59.840Z,99.90
2023-09-16T23:19:27.364Z,99.90
2023-09-16T23:21:54.766Z,99.90
2023-09-16T23:24:21.651Z,99.90
2023-09-16T23:26:48.559Z,99.90
2023-09-16T23:29:15.410Z,99.90
2023-09-16T23:31:42.369Z,99.90
2023-09-16T23:34:09.480Z,99.90
2023-09-16T23:36:36.470Z,99.90
2023-09-16T23:39:06.774Z,99.90
2023-09-16T23:41:34.000Z,99.90
2023-09-16T23:44:00.769Z,99.90
2023-09-16T23:46:27.741Z,99.90
2023-09-16T23:48:54.849Z,99.90
2023-09-16T23:51:21.779Z,99.90
2023-09-16T23:53:49.141Z,99.90
2023-09-16T23:56:16.250Z,99.90
2023-09-16T23:58:43.043Z,99.90
